sensor_id;sensor_type;location;lat;lon;timestamp;temperature;humidity
18103;DHT22;9178;51.120;6.192;2022-12-13T00:00:02;-3.40;99.90
18103;DHT22;9178;51.120;6.192;2022-12-13T00:02:29;-3.40;99.90
18103;DHT22;9178;51.120;6.192;2022-12-13T00:04:56;-3.50;99.90
18103;DHT22;9178;51.120;6.192;2022-12-13T00:07:23;-3.60;99.90
18103;DHT22;9178;51.120;6.192;2022-12-13T00:09:50;-3.60;99.90
18103;DHT22;9178;51.120;6.192;2022-12-13T00:12:18;-3.50;99.90
18103;DHT22;9178;51.120;6.192;2022-12-13T00:14:44;-3.50;99.90
18103;DHT22;9178;51.120;6.192;2022-12-13T00:17:11;-3.50;99.90
18103;DHT22;9178;51.120;6.192;2022-12-13T00:19:38;-3.40;99.90
18103;DHT22;9178;51.120;6.192;2022-12-13T00:22:05;-3.40;99.90
18103;DHT22;9178;51.120;6.192;2022-12-13T00:24:31;-3.40;99.90
18103;DHT22;9178;51.120;6.192;2022-12-13T00:26:58;-3.40;99.90
18103;DHT22;9178;51.120;6.192;2022-12-13T00:29:26;-3.40;99.90
18103;DHT22;9178;51.120;6.192;2022-12-13T00:31:53;-3.40;99.90
18103;DHT22;9178;51.120;6.192;2022-12-13T00:34:20;-3.40;99.90
18103;DHT22;9178;51.120;6.192;2022-12-13T00:36:47;-3.40;99.90
18103;DHT22;9178;51.120;6.192;2022-12-13T00:39:14;-3.50;99.90
18103;DHT22;9178;51.120;6.192;2022-12-13T00:41:42;-3.50;99.90
18103;DHT22;9178;51.120;6.192;2022-12-13T00:44:10;-3.50;99.90
18103;DHT22;9178;51.120;6.192;2022-12-13T00:46:39;-3.50;99.90
18103;DHT22;9178;51.120;6.192;2022-12-13T00:49:08;-3.50;99.90
18103;DHT22;9178;51.120;6.192;2022-12-13T00:51:36;-3.50;99.90
18103;DHT22;9178;51.120;6.192;2022-12-13T00:54:03;-3.60;99.90
18103;DHT22;9178;51.120;6.192;2022-12-13T00:56:31;-3.60;99.90
18103;DHT22;9178;51.120;6.192;2022-12-13T00:58:58;-3.70;99.90
18103;DHT22;9178;51.120;6.192;2022-12-13T01:01:26;-3.80;99.90
18103;DHT22;9178;51.120;6.192;2022-12-13T01:03:57;-3.80;99.90
18103;DHT22;9178;51.120;6.192;2022-12-13T01:06:27;-3.80;99.90
18103;DHT22;9178;51.120;6.192;2022-12-13T01:08:55;-3.70;99.90
18103;DHT22;9178;51.120;6.192;2022-12-13T01:11:21;-3.70;99.90
18103;DHT22;9178;51.120;6.192;2022-12-13T01:13:48;-3.70;99.90
18103;DHT22;9178;51.120;6.192;2022-12-13T01:16:15;-3.70;99.90
18103;DHT22;9178;51.120;6.192;2022-12-13T01:18:43;-3.70;99.90
18103;DHT22;9178;51.120;6.192;2022-12-13T01:21:13;-3.70;99.90
18103;DHT22;9178;51.120;6.192;2022-12-13T01:23:41;-3.70;99.90
18103;DHT22;9178;51.120;6.192;2022-12-13T01:26:09;-3.60;99.90
18103;DHT22;9178;51.120;6.192;2022-12-13T01:28:37;-3.60;99.90
18103;DHT22;9178;51.120;6.192;2022-12-13T01:31:06;-3.60;99.90
18103;DHT22;9178;51.120;6.192;2022-12-13T01:33:34;-3.60;99.90
18103;DHT22;9178;51.120;6.192;2022-12-13T01:36:01;-3.60;99.90
18103;DHT22;9178;51.120;6.192;2022-12-13T01:38:31;-3.60;99.90
18103;DHT22;9178;51.120;6.192;2022-12-13T01:40:57;-3.50;99.90
18103;DHT22;9178;51.120;6.192;2022-12-13T01:43:25;-3.60;99.90
18103;DHT22;9178;51.120;6.192;2022-12-13T01:45:52;-3.60;99.90
18103;DHT22;9178;51.120;6.192;2022-12-13T01:48:23;-3.60;99.90
18103;DHT22;9178;51.120;6.192;2022-12-13T01:50:53;-3.70;99.90
18103;DHT22;9178;51.120;6.192;2022-12-13T01:53:23;-3.70;99.90
18103;DHT22;9178;51.120;6.192;2022-12-13T01:55:56;-3.70;99.90
18103;DHT22;9178;51.120;6.192;2022-12-13T01:58:23;-3.70;99.90
18103;DHT22;9178;51.120;6.192;2022-12-13T02:00:51;-3.70;99.90
18103;DHT22;9178;51.120;6.192;2022-12-13T02:03:20;-3.70;99.90
18103;DHT22;9178;51.120;6.192;2022-12-13T02:05:52;-3.70;99.90
18103;DHT22;9178;51.120;6.192;2022-12-13T02:08:20;-3.80;99.90
18103;DHT22;9178;51.120;6.192;2022-12-13T02:10:47;-3.80;99.90
18103;DHT22;9178;51.120;6.192;2022-12-13T02:13:16;-3.80;99.90
18103;DHT22;9178;51.120;6.192;2022-12-13T02:15:48;-3.90;99.90
18103;DHT22;9178;51.120;6.192;2022-12-13T02:18:25;-3.90;99.90
18103;DHT22;9178;51.120;6.192;2022-12-13T02:21:11;-3.90;99.90
18103;DHT22;9178;51.120;6.192;2022-12-13T02:23:58;-3.90;99.90
18103;DHT22;9178;51.120;6.192;2022-12-13T02:26:44;-4.00;99.90
18103;DHT22;9178;51.120;6.192;2022-12-13T02:29:38;-4.00;99.90
18103;DHT22;9178;51.120;6.192;2022-12-13T02:32:16;-4.00;99.90
18103;DHT22;9178;51.120;6.192;2022-12-13T02:34:52;-4.00;99.90
18103;DHT22;9178;51.120;6.192;2022-12-13T02:37:23;-4.10;99.90
18103;DHT22;9178;51.120;6.192;2022-12-13T02:39:57;-4.10;99.90
18103;DHT22;9178;51.120;6.192;2022-12-13T02:42:29;-4.10;99.90
18103;DHT22;9178;51.120;6.192;2022-12-13T02:45:00;-4.10;99.90
18103;DHT22;9178;51.120;6.192;2022-12-13T02:47:30;-4.10;99.90
18103;DHT22;9178;51.120;6.192;2022-12-13T02:50:02;-4.10;99.90
18103;DHT22;9178;51.120;6.192;2022-12-13T02:52:30;-4.10;99.90
18103;DHT22;9178;51.120;6.192;2022-12-13T02:54:58;-4.10;99.90
18103;DHT22;9178;51.120;6.192;2022-12-13T02:57:28;-4.20;99.90
18103;DHT22;9178;51.120;6.192;2022-12-13T02:59:55;-4.20;99.90
18103;DHT22;9178;51.120;6.192;2022-12-13T03:02:28;-4.20;99.90
18103;DHT22;9178;51.120;6.192;2022-12-13T03:05:06;-4.10;99.90
18103;DHT22;9178;51.120;6.192;2022-12-13T03:08:11;-4.10;99.90
18103;DHT22;9178;51.120;6.192;2022-12-13T03:10:43;-4.00;99.90
18103;DHT22;9178;51.120;6.192;2022-12-13T03:13:20;-4.00;99.90
18103;DHT22;9178;51.120;6.192;2022-12-13T03:16:08;-4.00;99.90
18103;DHT22;9178;51.120;6.192;2022-12-13T03:18:37;-4.00;99.90
18103;DHT22;9178;51.120;6.192;2022-12-13T03:21:07;-4.00;99.90
18103;DHT22;9178;51.120;6.192;2022-12-13T03:23:35;-4.10;99.90
18103;DHT22;9178;51.120;6.192;2022-12-13T03:26:06;-4.10;99.90
18103;DHT22;9178;51.120;6.192;2022-12-13T03:28:34;-4.20;99.90
18103;DHT22;9178;51.120;6.192;2022-12-13T03:31:01;-4.20;99.90
18103;DHT22;9178;51.120;6.192;2022-12-13T03:33:28;-4.10;99.90
18103;DHT22;9178;51.120;6.192;2022-12-13T03:35:55;-4.10;99.90
18103;DHT22;9178;51.120;6.192;2022-12-13T03:38:24;-4.20;99.90
18103;DHT22;9178;51.120;6.192;2022-12-13T03:40:54;-4.20;99.90
18103;DHT22;9178;51.120;6.192;2022-12-13T03:43:23;-4.20;99.90
18103;DHT22;9178;51.120;6.192;2022-12-13T03:45:50;-4.30;99.90
18103;DHT22;9178;51.120;6.192;2022-12-13T03:48:17;-4.30;99.90
18103;DHT22;9178;51.120;6.192;2022-12-13T03:50:44;-4.30;99.90
18103;DHT22;9178;51.120;6.192;2022-12-13T03:53:10;-4.20;99.90
18103;DHT22;9178;51.120;6.192;2022-12-13T03:55:39;-4.20;99.90
18103;DHT22;9178;51.120;6.192;2022-12-13T03:58:05;-4.20;99.90
18103;DHT22;9178;51.120;6.192;2022-12-13T04:00:32;-4.20;99.90
18103;DHT22;9178;51.120;6.192;2022-12-13T04:02:59;-4.20;99.90
18103;DHT22;9178;51.120;6.192;2022-12-13T04:05:26;-4.20;99.90
18103;DHT22;9178;51.120;6.192;2022-12-13T04:07:53;-4.20;99.90
18103;DHT22;9178;51.120;6.192;2022-12-13T04:10:19;-4.20;99.90
18103;DHT22;9178;51.120;6.192;2022-12-13T04:12:47;-4.20;99.90
18103;DHT22;9178;51.120;6.192;2022-12-13T04:15:32;-4.20;99.90
18103;DHT22;9178;51.120;6.192;2022-12-13T04:17:58;-4.20;99.90
18103;DHT22;9178;51.120;6.192;2022-12-13T04:20:25;-4.20;99.90
18103;DHT22;9178;51.120;6.192;2022-12-13T04:22:52;-4.20;99.90
18103;DHT22;9178;51.120;6.192;2022-12-13T04:25:19;-4.30;99.90
18103;DHT22;9178;51.120;6.192;2022-12-13T04:27:45;-4.30;99.90
18103;DHT22;9178;51.120;6.192;2022-12-13T04:30:13;-4.30;99.90
18103;DHT22;9178;51.120;6.192;2022-12-13T04:32:40;-4.30;99.90
18103;DHT22;9178;51.120;6.192;2022-12-13T04:35:07;-4.30;99.90
18103;DHT22;9178;51.120;6.192;2022-12-13T04:37:34;-4.20;99.90
18103;DHT22;9178;51.120;6.192;2022-12-13T04:40:01;-4.20;99.90
18103;DHT22;9178;51.120;6.192;2022-12-13T04:42:28;-4.20;99.90
18103;DHT22;9178;51.120;6.192;2022-12-13T04:44:54;-4.30;99.90
18103;DHT22;9178;51.120;6.192;2022-12-13T04:47:22;-4.40;99.90
18103;DHT22;9178;51.120;6.192;2022-12-13T04:49:49;-4.40;99.90
18103;DHT22;9178;51.120;6.192;2022-12-13T04:52:16;-4.50;99.90
18103;DHT22;9178;51.120;6.192;2022-12-13T04:54:43;-4.50;99.90
18103;DHT22;9178;51.120;6.192;2022-12-13T04:57:10;-4.50;99.90
18103;DHT22;9178;51.120;6.192;2022-12-13T04:59:38;-4.50;99.90
18103;DHT22;9178;51.120;6.192;2022-12-13T05:02:05;-4.50;99.90
18103;DHT22;9178;51.120;6.192;2022-12-13T05:04:34;-4.50;99.90
18103;DHT22;9178;51.120;6.192;2022-12-13T05:07:02;-4.50;99.90
18103;DHT22;9178;51.120;6.192;2022-12-13T05:09:29;-4.40;99.90
18103;DHT22;9178;51.120;6.192;2022-12-13T05:11:56;-4.40;99.90
18103;DHT22;9178;51.120;6.192;2022-12-13T05:14:22;-4.40;99.90
18103;DHT22;9178;51.120;6.192;2022-12-13T05:16:49;-4.40;99.90
18103;DHT22;9178;51.120;6.192;2022-12-13T05:19:16;-4.30;99.90
18103;DHT22;9178;51.120;6.192;2022-12-13T05:21:44;-4.30;99.90
18103;DHT22;9178;51.120;6.192;2022-12-13T05:24:11;-4.30;99.90
18103;DHT22;9178;51.120;6.192;2022-12-13T05:26:38;-4.30;99.90
18103;DHT22;9178;51.120;6.192;2022-12-13T05:29:04;-4.30;99.90
18103;DHT22;9178;51.120;6.192;2022-12-13T05:31:31;-4.30;99.90
18103;DHT22;9178;51.120;6.192;2022-12-13T05:33:58;-4.30;99.90
18103;DHT22;9178;51.120;6.192;2022-12-13T05:36:25;-4.30;99.90
18103;DHT22;9178;51.120;6.192;2022-12-13T05:38:53;-4.30;99.90
18103;DHT22;9178;51.120;6.192;2022-12-13T05:41:22;-4.30;99.90
18103;DHT22;9178;51.120;6.192;2022-12-13T05:43:50;-4.20;99.90
18103;DHT22;9178;51.120;6.192;2022-12-13T05:46:16;-4.20;99.90
18103;DHT22;9178;51.120;6.192;2022-12-13T05:48:43;-4.20;99.90
18103;DHT22;9178;51.120;6.192;2022-12-13T05:51:10;-4.20;99.90
18103;DHT22;9178;51.120;6.192;2022-12-13T05:53:38;-4.20;99.90
18103;DHT22;9178;51.120;6.192;2022-12-13T05:56:07;-4.20;99.90
18103;DHT22;9178;51.120;6.192;2022-12-13T05:58:35;-4.20;99.90
18103;DHT22;9178;51.120;6.192;2022-12-13T06:01:07;-4.20;99.90
18103;DHT22;9178;51.120;6.192;2022-12-13T06:03:34;-4.20;99.90
18103;DHT22;9178;51.120;6.192;2022-12-13T06:06:02;-4.30;99.90
18103;DHT22;9178;51.120;6.192;2022-12-13T06:08:29;-4.30;99.90
18103;DHT22;9178;51.120;6.192;2022-12-13T06:10:58;-4.30;99.90
18103;DHT22;9178;51.120;6.192;2022-12-13T06:13:26;-4.30;99.90
18103;DHT22;9178;51.120;6.192;2022-12-13T06:15:54;-4.30;99.90
18103;DHT22;9178;51.120;6.192;2022-12-13T06:18:20;-4.30;99.90
18103;DHT22;9178;51.120;6.192;2022-12-13T06:20:55;-4.30;99.90
18103;DHT22;9178;51.120;6.192;2022-12-13T06:23:22;-4.30;99.90
18103;DHT22;9178;51.120;6.192;2022-12-13T06:25:49;-4.30;99.90
18103;DHT22;9178;51.120;6.192;2022-12-13T06:28:16;-4.30;99.90
18103;DHT22;9178;51.120;6.192;2022-12-13T06:30:44;-4.30;99.90
18103;DHT22;9178;51.120;6.192;2022-12-13T06:33:11;-4.40;99.90
18103;DHT22;9178;51.120;6.192;2022-12-13T06:35:38;-4.40;99.90
18103;DHT22;9178;51.120;6.192;2022-12-13T06:38:04;-4.40;99.90
18103;DHT22;9178;51.120;6.192;2022-12-13T06:40:31;-4.40;99.90
18103;DHT22;9178;51.120;6.192;2022-12-13T06:42:58;-4.40;99.90
18103;DHT22;9178;51.120;6.192;2022-12-13T06:45:25;-4.50;99.90
18103;DHT22;9178;51.120;6.192;2022-12-13T06:47:54;-4.50;99.90
18103;DHT22;9178;51.120;6.192;2022-12-13T06:50:21;-4.50;99.90
18103;DHT22;9178;51.120;6.192;2022-12-13T06:52:48;-4.50;99.90
18103;DHT22;9178;51.120;6.192;2022-12-13T06:55:15;-4.40;99.90
18103;DHT22;9178;51.120;6.192;2022-12-13T06:57:41;-4.40;99.90
18103;DHT22;9178;51.120;6.192;2022-12-13T07:00:10;-4.40;99.90
18103;DHT22;9178;51.120;6.192;2022-12-13T07:02:37;-4.30;99.90
18103;DHT22;9178;51.120;6.192;2022-12-13T07:05:06;-4.30;99.90
18103;DHT22;9178;51.120;6.192;2022-12-13T07:07:33;-4.20;99.90
18103;DHT22;9178;51.120;6.192;2022-12-13T07:09:59;-4.20;99.90
18103;DHT22;9178;51.120;6.192;2022-12-13T07:12:26;-4.20;99.90
18103;DHT22;9178;51.120;6.192;2022-12-13T07:14:53;-4.10;99.90
18103;DHT22;9178;51.120;6.192;2022-12-13T07:17:20;-4.10;99.90
18103;DHT22;9178;51.120;6.192;2022-12-13T07:19:47;-4.10;99.90
18103;DHT22;9178;51.120;6.192;2022-12-13T07:22:15;-4.00;99.90
18103;DHT22;9178;51.120;6.192;2022-12-13T07:24:42;-4.00;99.90
18103;DHT22;9178;51.120;6.192;2022-12-13T07:27:08;-4.00;99.90
18103;DHT22;9178;51.120;6.192;2022-12-13T07:29:36;-4.00;99.90
18103;DHT22;9178;51.120;6.192;2022-12-13T07:32:03;-4.00;99.90
18103;DHT22;9178;51.120;6.192;2022-12-13T07:34:30;-4.00;99.90
18103;DHT22;9178;51.120;6.192;2022-12-13T07:36:57;-4.00;99.90
18103;DHT22;9178;51.120;6.192;2022-12-13T07:39:25;-4.10;99.90
18103;DHT22;9178;51.120;6.192;2022-12-13T07:41:53;-4.10;99.90
18103;DHT22;9178;51.120;6.192;2022-12-13T07:44:20;-4.10;99.90
18103;DHT22;9178;51.120;6.192;2022-12-13T07:46:47;-4.10;99.90
18103;DHT22;9178;51.120;6.192;2022-12-13T07:49:14;-4.10;99.90
18103;DHT22;9178;51.120;6.192;2022-12-13T07:51:40;-4.10;99.90
18103;DHT22;9178;51.120;6.192;2022-12-13T07:54:07;-4.10;99.90
18103;DHT22;9178;51.120;6.192;2022-12-13T07:56:35;-4.10;99.90
18103;DHT22;9178;51.120;6.192;2022-12-13T07:59:02;-4.10;99.90
18103;DHT22;9178;51.120;6.192;2022-12-13T08:01:30;-4.10;99.90
18103;DHT22;9178;51.120;6.192;2022-12-13T08:03:58;-4.10;99.90
18103;DHT22;9178;51.120;6.192;2022-12-13T08:06:25;-4.10;99.90
18103;DHT22;9178;51.120;6.192;2022-12-13T08:08:54;-4.10;99.90
18103;DHT22;9178;51.120;6.192;2022-12-13T08:11:21;-4.10;99.90
18103;DHT22;9178;51.120;6.192;2022-12-13T08:13:49;-4.10;99.90
18103;DHT22;9178;51.120;6.192;2022-12-13T08:16:15;-4.10;99.90
18103;DHT22;9178;51.120;6.192;2022-12-13T08:18:43;-4.00;99.90
18103;DHT22;9178;51.120;6.192;2022-12-13T08:21:12;-4.00;99.90
18103;DHT22;9178;51.120;6.192;2022-12-13T08:23:40;-4.00;99.90
18103;DHT22;9178;51.120;6.192;2022-12-13T08:26:07;-3.90;99.90
18103;DHT22;9178;51.120;6.192;2022-12-13T08:28:34;-3.90;99.90
18103;DHT22;9178;51.120;6.192;2022-12-13T08:31:05;-3.90;99.90
18103;DHT22;9178;51.120;6.192;2022-12-13T08:33:32;-3.90;99.90
18103;DHT22;9178;51.120;6.192;2022-12-13T08:36:07;-3.80;99.90
18103;DHT22;9178;51.120;6.192;2022-12-13T08:38:34;-3.80;99.90
18103;DHT22;9178;51.120;6.192;2022-12-13T08:41:01;-3.70;99.90
18103;DHT22;9178;51.120;6.192;2022-12-13T08:43:28;-3.70;99.90
18103;DHT22;9178;51.120;6.192;2022-12-13T08:45:54;-3.70;99.90
18103;DHT22;9178;51.120;6.192;2022-12-13T08:48:22;-3.70;99.90
18103;DHT22;9178;51.120;6.192;2022-12-13T08:50:49;-3.70;99.90
18103;DHT22;9178;51.120;6.192;2022-12-13T08:53:16;-3.60;99.90
18103;DHT22;9178;51.120;6.192;2022-12-13T08:55:43;-3.60;99.90
18103;DHT22;9178;51.120;6.192;2022-12-13T08:58:10;-3.60;99.90
18103;DHT22;9178;51.120;6.192;2022-12-13T09:00:37;-3.50;99.90
18103;DHT22;9178;51.120;6.192;2022-12-13T09:03:05;-3.50;99.90
18103;DHT22;9178;51.120;6.192;2022-12-13T09:05:33;-3.40;99.90
18103;DHT22;9178;51.120;6.192;2022-12-13T09:08:00;-3.30;99.90
18103;DHT22;9178;51.120;6.192;2022-12-13T09:10:28;-3.30;99.90
18103;DHT22;9178;51.120;6.192;2022-12-13T09:12:56;-3.30;99.90
18103;DHT22;9178;51.120;6.192;2022-12-13T09:15:24;-3.30;99.90
18103;DHT22;9178;51.120;6.192;2022-12-13T09:17:51;-3.20;99.90
18103;DHT22;9178;51.120;6.192;2022-12-13T09:20:18;-3.20;99.90
18103;DHT22;9178;51.120;6.192;2022-12-13T09:22:46;-3.10;99.90
18103;DHT22;9178;51.120;6.192;2022-12-13T09:25:13;-3.10;99.90
18103;DHT22;9178;51.120;6.192;2022-12-13T09:27:40;-3.00;99.90
18103;DHT22;9178;51.120;6.192;2022-12-13T09:30:08;-3.00;99.90
18103;DHT22;9178;51.120;6.192;2022-12-13T09:32:37;-2.90;99.90
18103;DHT22;9178;51.120;6.192;2022-12-13T09:35:05;-2.80;99.90
18103;DHT22;9178;51.120;6.192;2022-12-13T09:37:32;-2.80;99.90
18103;DHT22;9178;51.120;6.192;2022-12-13T09:40:00;-2.70;99.90
18103;DHT22;9178;51.120;6.192;2022-12-13T09:42:29;-2.70;99.90
18103;DHT22;9178;51.120;6.192;2022-12-13T09:44:58;-2.70;99.90
18103;DHT22;9178;51.120;6.192;2022-12-13T09:47:29;-2.70;99.90
18103;DHT22;9178;51.120;6.192;2022-12-13T09:49:58;-2.60;99.90
18103;DHT22;9178;51.120;6.192;2022-12-13T09:52:29;-2.60;99.90
18103;DHT22;9178;51.120;6.192;2022-12-13T09:54:57;-2.60;99.90
18103;DHT22;9178;51.120;6.192;2022-12-13T09:57:27;-2.50;99.90
18103;DHT22;9178;51.120;6.192;2022-12-13T09:59:55;-2.50;99.90
18103;DHT22;9178;51.120;6.192;2022-12-13T10:02:24;-2.50;99.90
18103;DHT22;9178;51.120;6.192;2022-12-13T10:04:51;-2.50;99.90
18103;DHT22;9178;51.120;6.192;2022-12-13T10:07:20;-2.50;99.90
18103;DHT22;9178;51.120;6.192;2022-12-13T10:09:57;-2.40;99.90
18103;DHT22;9178;51.120;6.192;2022-12-13T10:12:27;-2.30;99.90
18103;DHT22;9178;51.120;6.192;2022-12-13T10:14:57;-2.30;99.90
18103;DHT22;9178;51.120;6.192;2022-12-13T10:17:27;-2.30;99.90
18103;DHT22;9178;51.120;6.192;2022-12-13T10:19:57;-2.30;99.90
18103;DHT22;9178;51.120;6.192;2022-12-13T10:22:24;-2.20;99.90
18103;DHT22;9178;51.120;6.192;2022-12-13T10:24:53;-2.20;99.90
18103;DHT22;9178;51.120;6.192;2022-12-13T10:27:27;-2.10;99.90
18103;DHT22;9178;51.120;6.192;2022-12-13T10:30:00;-2.00;99.90
18103;DHT22;9178;51.120;6.192;2022-12-13T10:32:27;-2.10;99.90
18103;DHT22;9178;51.120;6.192;2022-12-13T10:34:54;-2.00;99.90
18103;DHT22;9178;51.120;6.192;2022-12-13T10:37:26;-2.00;99.90
18103;DHT22;9178;51.120;6.192;2022-12-13T10:39:53;-2.00;99.90
18103;DHT22;9178;51.120;6.192;2022-12-13T10:42:21;-1.90;99.90
18103;DHT22;9178;51.120;6.192;2022-12-13T10:45:08;-1.70;99.90
18103;DHT22;9178;51.120;6.192;2022-12-13T10:47:36;-1.60;99.90
18103;DHT22;9178;51.120;6.192;2022-12-13T10:50:03;-1.60;99.90
18103;DHT22;9178;51.120;6.192;2022-12-13T10:52:31;-1.50;99.90
18103;DHT22;9178;51.120;6.192;2022-12-13T10:55:03;-1.40;99.90
18103;DHT22;9178;51.120;6.192;2022-12-13T10:57:30;-1.10;99.90
18103;DHT22;9178;51.120;6.192;2022-12-13T11:00:00;-0.40;99.90
18103;DHT22;9178;51.120;6.192;2022-12-13T11:02:33;-0.20;99.90
18103;DHT22;9178;51.120;6.192;2022-12-13T11:05:21;-0.10;99.90
18103;DHT22;9178;51.120;6.192;2022-12-13T11:07:48;-0.30;99.90
18103;DHT22;9178;51.120;6.192;2022-12-13T11:10:20;-0.40;99.90
18103;DHT22;9178;51.120;6.192;2022-12-13T11:12:47;-0.40;99.90
18103;DHT22;9178;51.120;6.192;2022-12-13T11:15:18;-0.30;99.90
18103;DHT22;9178;51.120;6.192;2022-12-13T11:17:47;-0.40;99.90
18103;DHT22;9178;51.120;6.192;2022-12-13T11:20:18;-0.60;99.90
18103;DHT22;9178;51.120;6.192;2022-12-13T11:22:47;-0.80;99.90
18103;DHT22;9178;51.120;6.192;2022-12-13T11:25:20;-0.90;99.90
18103;DHT22;9178;51.120;6.192;2022-12-13T11:27:59;-0.90;99.90
18103;DHT22;9178;51.120;6.192;2022-12-13T11:30:36;-0.90;99.90
18103;DHT22;9178;51.120;6.192;2022-12-13T11:33:16;-0.90;99.90
18103;DHT22;9178;51.120;6.192;2022-12-13T11:36:00;-0.80;99.90
18103;DHT22;9178;51.120;6.192;2022-12-13T11:38:33;-0.80;99.90
18103;DHT22;9178;51.120;6.192;2022-12-13T11:41:05;-0.80;99.90
18103;DHT22;9178;51.120;6.192;2022-12-13T11:43:38;-0.60;99.90
18103;DHT22;9178;51.120;6.192;2022-12-13T11:46:16;-0.50;99.90
18103;DHT22;9178;51.120;6.192;2022-12-13T11:48:47;-0.30;99.90
18103;DHT22;9178;51.120;6.192;2022-12-13T11:51:23;0.00;99.90
18103;DHT22;9178;51.120;6.192;2022-12-13T11:53:56;0.30;99.90
18103;DHT22;9178;51.120;6.192;2022-12-13T11:56:25;0.50;99.90
18103;DHT22;9178;51.120;6.192;2022-12-13T11:59:00;0.60;99.90
18103;DHT22;9178;51.120;6.192;2022-12-13T12:01:32;0.40;99.90
18103;DHT22;9178;51.120;6.192;2022-12-13T12:04:09;0.20;99.90
18103;DHT22;9178;51.120;6.192;2022-12-13T12:06:41;0.00;99.90
18103;DHT22;9178;51.120;6.192;2022-12-13T12:09:13;-0.10;99.90
18103;DHT22;9178;51.120;6.192;2022-12-13T12:11:46;-0.20;99.90
18103;DHT22;9178;51.120;6.192;2022-12-13T12:14:18;-0.30;99.90
18103;DHT22;9178;51.120;6.192;2022-12-13T12:16:51;-0.40;99.90
18103;DHT22;9178;51.120;6.192;2022-12-13T12:19:19;-0.50;99.90
18103;DHT22;9178;51.120;6.192;2022-12-13T12:22:03;-0.50;99.90
18103;DHT22;9178;51.120;6.192;2022-12-13T12:24:38;-0.50;99.90
18103;DHT22;9178;51.120;6.192;2022-12-13T12:27:19;-0.50;99.90
18103;DHT22;9178;51.120;6.192;2022-12-13T12:30:04;-0.60;99.90
18103;DHT22;9178;51.120;6.192;2022-12-13T12:32:42;-0.60;99.90
18103;DHT22;9178;51.120;6.192;2022-12-13T12:38:26;-0.70;99.90
18103;DHT22;9178;51.120;6.192;2022-12-13T12:41:12;-0.60;99.90
18103;DHT22;9178;51.120;6.192;2022-12-13T12:43:43;-0.50;99.90
18103;DHT22;9178;51.120;6.192;2022-12-13T12:46:27;-0.40;99.90
18103;DHT22;9178;51.120;6.192;2022-12-13T12:49:13;-0.20;99.90
18103;DHT22;9178;51.120;6.192;2022-12-13T12:51:53;-0.20;99.90
18103;DHT22;9178;51.120;6.192;2022-12-13T12:54:34;-0.30;99.90
18103;DHT22;9178;51.120;6.192;2022-12-13T12:57:08;-0.30;99.90
18103;DHT22;9178;51.120;6.192;2022-12-13T12:59:47;-0.30;99.90
18103;DHT22;9178;51.120;6.192;2022-12-13T13:02:24;-0.30;99.90
18103;DHT22;9178;51.120;6.192;2022-12-13T13:04:56;-0.40;99.90
18103;DHT22;9178;51.120;6.192;2022-12-13T13:07:28;-0.40;99.90
18103;DHT22;9178;51.120;6.192;2022-12-13T13:09:57;-0.40;99.90
18103;DHT22;9178;51.120;6.192;2022-12-13T13:12:25;-0.40;99.90
18103;DHT22;9178;51.120;6.192;2022-12-13T13:14:52;-0.40;99.90
18103;DHT22;9178;51.120;6.192;2022-12-13T13:17:44;-0.40;99.90
18103;DHT22;9178;51.120;6.192;2022-12-13T13:20:18;-0.40;99.90
18103;DHT22;9178;51.120;6.192;2022-12-13T13:22:47;-0.40;99.90
18103;DHT22;9178;51.120;6.192;2022-12-13T13:25:35;-0.40;99.90
18103;DHT22;9178;51.120;6.192;2022-12-13T13:28:05;-0.40;99.90
18103;DHT22;9178;51.120;6.192;2022-12-13T13:30:32;-0.40;99.90
18103;DHT22;9178;51.120;6.192;2022-12-13T13:33:00;-0.40;99.90
18103;DHT22;9178;51.120;6.192;2022-12-13T13:35:52;-0.40;99.90
18103;DHT22;9178;51.120;6.192;2022-12-13T13:38:49;-0.40;99.90
18103;DHT22;9178;51.120;6.192;2022-12-13T13:41:38;-0.40;99.90
18103;DHT22;9178;51.120;6.192;2022-12-13T13:47:14;-0.40;99.90
18103;DHT22;9178;51.120;6.192;2022-12-13T13:49:49;-0.40;99.90
18103;DHT22;9178;51.120;6.192;2022-12-13T13:52:22;-0.50;99.90
18103;DHT22;9178;51.120;6.192;2022-12-13T13:55:19;-0.50;99.90
18103;DHT22;9178;51.120;6.192;2022-12-13T13:58:10;-0.50;99.90
18103;DHT22;9178;51.120;6.192;2022-12-13T14:04:08;-0.50;99.90
18103;DHT22;9178;51.120;6.192;2022-12-13T14:07:20;-0.50;99.90
18103;DHT22;9178;51.120;6.192;2022-12-13T14:10:18;-0.40;99.90
18103;DHT22;9178;51.120;6.192;2022-12-13T14:13:30;-0.40;99.90
18103;DHT22;9178;51.120;6.192;2022-12-13T14:22:26;-0.50;99.90
18103;DHT22;9178;51.120;6.192;2022-12-13T14:27:58;-0.50;99.90
18103;DHT22;9178;51.120;6.192;2022-12-13T14:30:26;-0.50;99.90
18103;DHT22;9178;51.120;6.192;2022-12-13T14:32:53;-0.60;99.90
18103;DHT22;9178;51.120;6.192;2022-12-13T14:35:22;-0.60;99.90
18103;DHT22;9178;51.120;6.192;2022-12-13T14:37:57;-0.60;99.90
18103;DHT22;9178;51.120;6.192;2022-12-13T14:40:28;-0.70;99.90
18103;DHT22;9178;51.120;6.192;2022-12-13T14:42:57;-0.70;99.90
18103;DHT22;9178;51.120;6.192;2022-12-13T14:45:25;-0.70;99.90
18103;DHT22;9178;51.120;6.192;2022-12-13T14:47:55;-0.70;99.90
18103;DHT22;9178;51.120;6.192;2022-12-13T14:50:25;-0.70;99.90
18103;DHT22;9178;51.120;6.192;2022-12-13T14:52:53;-0.70;99.90
18103;DHT22;9178;51.120;6.192;2022-12-13T14:55:24;-0.80;99.90
18103;DHT22;9178;51.120;6.192;2022-12-13T14:57:54;-0.80;99.90
18103;DHT22;9178;51.120;6.192;2022-12-13T15:00:25;-0.80;99.90
18103;DHT22;9178;51.120;6.192;2022-12-13T15:02:56;-0.80;99.90
18103;DHT22;9178;51.120;6.192;2022-12-13T15:05:26;-0.80;99.90
18103;DHT22;9178;51.120;6.192;2022-12-13T15:07:53;-0.80;99.90
18103;DHT22;9178;51.120;6.192;2022-12-13T15:10:23;-0.80;99.90
18103;DHT22;9178;51.120;6.192;2022-12-13T15:12:53;-0.90;99.90
18103;DHT22;9178;51.120;6.192;2022-12-13T15:15:25;-0.90;99.90
18103;DHT22;9178;51.120;6.192;2022-12-13T15:18:15;-0.90;99.90
18103;DHT22;9178;51.120;6.192;2022-12-13T15:20:43;-0.90;99.90
18103;DHT22;9178;51.120;6.192;2022-12-13T15:23:14;-1.00;99.90
18103;DHT22;9178;51.120;6.192;2022-12-13T15:25:45;-1.00;99.90
18103;DHT22;9178;51.120;6.192;2022-12-13T15:28:14;-1.00;99.90
18103;DHT22;9178;51.120;6.192;2022-12-13T15:30:43;-1.10;99.90
18103;DHT22;9178;51.120;6.192;2022-12-13T15:33:17;-1.10;99.90
18103;DHT22;9178;51.120;6.192;2022-12-13T15:35:45;-1.10;99.90
18103;DHT22;9178;51.120;6.192;2022-12-13T15:38:15;-1.10;99.90
18103;DHT22;9178;51.120;6.192;2022-12-13T15:40:44;-1.10;99.90
18103;DHT22;9178;51.120;6.192;2022-12-13T15:43:14;-1.10;99.90
18103;DHT22;9178;51.120;6.192;2022-12-13T15:45:45;-1.20;99.90
18103;DHT22;9178;51.120;6.192;2022-12-13T15:48:22;-1.20;99.90
18103;DHT22;9178;51.120;6.192;2022-12-13T15:50:49;-1.20;99.90
18103;DHT22;9178;51.120;6.192;2022-12-13T15:53:21;-1.20;99.90
18103;DHT22;9178;51.120;6.192;2022-12-13T15:55:49;-1.30;99.90
18103;DHT22;9178;51.120;6.192;2022-12-13T15:58:23;-1.30;99.90
18103;DHT22;9178;51.120;6.192;2022-12-13T16:00:52;-1.30;99.90
18103;DHT22;9178;51.120;6.192;2022-12-13T16:03:21;-1.30;99.90
18103;DHT22;9178;51.120;6.192;2022-12-13T16:05:50;-1.30;99.90
18103;DHT22;9178;51.120;6.192;2022-12-13T16:08:24;-1.30;99.90
18103;DHT22;9178;51.120;6.192;2022-12-13T16:10:52;-1.30;99.90
18103;DHT22;9178;51.120;6.192;2022-12-13T16:13:23;-1.30;99.90
18103;DHT22;9178;51.120;6.192;2022-12-13T16:15:53;-1.30;99.90
18103;DHT22;9178;51.120;6.192;2022-12-13T16:18:21;-1.30;99.90
18103;DHT22;9178;51.120;6.192;2022-12-13T16:20:48;-1.30;99.90
18103;DHT22;9178;51.120;6.192;2022-12-13T16:23:16;-1.30;99.90
18103;DHT22;9178;51.120;6.192;2022-12-13T16:25:42;-1.30;99.90